createdAt,value
2023-05-15T00:00:23.341Z,954.3892
2023-05-15T00:01:25.216Z,954.3915
2023-05-15T00:02:27.148Z,954.3900
2023-05-15T00:03:29.003Z,954.3846
2023-05-15T00:04:30.783Z,954.3738
2023-05-15T00:05:32.551Z,954.3561
2023-05-15T00:06:34.385Z,954.3423
2023-05-15T00:07:36.233Z,954.3308
2023-05-15T00:08:38.057Z,954.3308
2023-05-15T00:09:39.952Z,954.3185
2023-05-15T00:10:47.654Z,954.3077
2023-05-15T00:11:44.768Z,954.3054
2023-05-15T00:12:45.423Z,954.2977
2023-05-15T00:13:47.245Z,954.2839
2023-05-15T00:14:49.082Z,954.2747
2023-05-15T00:15:51.010Z,954.2646
2023-05-15T00:16:52.778Z,954.2469
2023-05-15T00:17:54.650Z,954.2346
2023-05-15T00:18:56.502Z,954.2253
2023-05-15T00:19:58.284Z,954.2146
2023-05-15T00:21:00.159Z,954.2084
2023-05-15T00:22:02.004Z,954.2047
2023-05-15T00:23:03.806Z,954.1985
2023-05-15T00:24:05.641Z,954.1938
2023-05-15T00:25:07.479Z,954.1830
2023-05-15T00:26:09.319Z,954.1900
2023-05-15T00:27:11.172Z,954.1815
2023-05-15T00:28:13.038Z,954.1862
2023-05-15T00:29:14.856Z,954.1815
2023-05-15T00:30:16.684Z,954.1808
2023-05-15T00:31:18.592Z,954.1846
2023-05-15T00:32:20.366Z,954.1830
2023-05-15T00:33:22.218Z,954.1815
2023-05-15T00:34:24.076Z,954.1715
2023-05-15T00:35:26.129Z,954.1730
2023-05-15T00:36:27.717Z,954.1700
2023-05-15T00:37:29.581Z,954.1685
2023-05-15T00:38:31.406Z,954.1723
2023-05-15T00:39:33.235Z,954.1823
2023-05-15T00:40:35.106Z,954.1938
2023-05-15T00:41:36.922Z,954.2047
2023-05-15T00:42:40.572Z,954.2039
2023-05-15T00:43:40.589Z,954.2031
2023-05-15T00:44:42.502Z,954.2054
2023-05-15T00:45:44.273Z,954.2100
2023-05-15T00:46:46.168Z,954.2131
2023-05-15T00:47:47.989Z,954.2115
2023-05-15T00:48:49.813Z,954.2115
2023-05-15T00:49:51.633Z,954.2054
2023-05-15T00:50:53.474Z,954.2015
2023-05-15T00:51:55.319Z,954.1885
2023-05-15T00:52:57.197Z,954.1792
2023-05-15T00:53:59.067Z,954.1761
2023-05-15T00:55:00.838Z,954.1630
2023-05-15T00:56:02.684Z,954.1677
2023-05-15T00:57:04.521Z,954.1615
2023-05-15T00:58:06.369Z,954.1615
2023-05-15T00:59:08.222Z,954.1646
2023-05-15T01:00:10.049Z,954.1661
2023-05-15T01:01:11.880Z,954.1608
2023-05-15T01:02:13.759Z,954.1584
2023-05-15T01:03:15.582Z,954.1630
2023-05-15T01:04:17.394Z,954.1653
2023-05-15T01:05:19.250Z,954.1785
2023-05-15T01:06:21.059Z,954.1777
2023-05-15T01:07:22.893Z,954.1823
2023-05-15T01:08:24.729Z,954.2015
2023-05-15T01:09:26.574Z,954.2092
2023-05-15T01:10:28.433Z,954.2115
2023-05-15T01:11:30.241Z,954.2108
2023-05-15T01:12:32.081Z,954.2062
2023-05-15T01:13:33.917Z,954.2015
2023-05-15T01:14:35.756Z,954.2115
2023-05-15T01:15:37.601Z,954.2108
2023-05-15T01:16:39.429Z,954.2200
2023-05-15T01:17:41.288Z,954.2354
2023-05-15T01:18:43.232Z,954.2400
2023-05-15T01:19:45.076Z,954.2523
2023-05-15T01:20:46.778Z,954.2531
2023-05-15T01:21:48.618Z,954.2408
2023-05-15T01:22:50.443Z,954.2361
2023-05-15T01:23:52.302Z,954.2253
2023-05-15T01:24:54.113Z,954.2131
2023-05-15T01:25:55.965Z,954.2161
2023-05-15T01:26:57.812Z,954.2100
2023-05-15T01:27:59.651Z,954.2108
2023-05-15T01:29:01.471Z,954.2139
2023-05-15T01:30:03.354Z,954.2146
2023-05-15T01:31:05.160Z,954.2192
2023-05-15T01:32:07.040Z,954.2123
2023-05-15T01:33:08.902Z,954.1931
2023-05-15T01:34:10.663Z,954.1915
2023-05-15T01:35:12.492Z,954.1715
2023-05-15T01:36:14.382Z,954.1623
2023-05-15T01:37:16.180Z,954.1661
2023-05-15T01:38:18.019Z,954.1669
2023-05-15T01:39:19.848Z,954.1754
2023-05-15T01:40:21.683Z,954.1715
2023-05-15T01:41:23.556Z,954.1700
2023-05-15T01:42:25.416Z,954.1738
2023-05-15T01:43:27.215Z,954.1830
2023-05-15T01:44:29.053Z,954.1815
2023-05-15T01:45:30.873Z,954.1885
2023-05-15T01:46:32.751Z,954.2008
2023-05-15T01:47:34.619Z,954.2123
2023-05-15T01:48:36.493Z,954.2292
2023-05-15T01:49:38.235Z,954.2377
2023-05-15T01:50:40.075Z,954.2500
2023-05-15T01:51:41.917Z,954.2639
2023-05-15T01:52:43.778Z,954.2731
2023-05-15T01:53:45.613Z,954.2808
2023-05-15T01:54:47.486Z,954.2800
2023-05-15T01:55:49.279Z,954.2877
2023-05-15T01:56:51.137Z,954.2908
2023-05-15T01:57:52.963Z,954.2992
2023-05-15T01:58:54.829Z,954.3138
2023-05-15T01:59:56.659Z,954.3239
2023-05-15T02:00:58.522Z,954.3192
2023-05-15T02:02:00.395Z,954.3123
2023-05-15T02:03:02.344Z,954.2938
2023-05-15T02:04:04.109Z,954.2746
2023-05-15T02:05:05.866Z,954.2500
2023-05-15T02:06:15.237Z,954.2300
2023-05-15T02:07:09.525Z,954.2058
2023-05-15T02:08:11.404Z,954.1885
2023-05-15T02:09:13.231Z,954.1692
2023-05-15T02:10:15.154Z,954.1730
2023-05-15T02:11:16.924Z,954.1792
2023-05-15T02:12:18.759Z,954.1885
2023-05-15T02:13:20.611Z,954.1915
2023-05-15T02:14:22.426Z,954.1830
2023-05-15T02:15:24.465Z,954.1723
2023-05-15T02:16:26.183Z,954.1516
2023-05-15T02:17:28.012Z,954.1339
2023-05-15T02:18:29.811Z,954.1331
2023-05-15T02:19:31.634Z,954.1238
2023-05-15T02:20:33.480Z,954.1177
2023-05-15T02:21:35.312Z,954.1138
2023-05-15T02:22:37.146Z,954.1038
2023-05-15T02:23:38.977Z,954.0900
2023-05-15T02:24:40.830Z,954.0800
2023-05-15T02:25:42.669Z,954.0770
2023-05-15T02:26:44.507Z,954.0723
2023-05-15T02:27:46.338Z,954.0662
2023-05-15T02:28:48.177Z,954.0677
2023-05-15T02:29:50.021Z,954.0592
2023-05-15T02:30:51.880Z,954.0585
2023-05-15T02:31:53.759Z,954.0577
2023-05-15T02:32:55.565Z,954.0670
2023-05-15T02:33:57.405Z,954.0823
2023-05-15T02:34:59.241Z,954.0923
2023-05-15T02:36:01.090Z,954.1053
2023-05-15T02:37:02.942Z,954.0969
2023-05-15T02:38:04.768Z,954.0992
2023-05-15T02:39:06.594Z,954.0939
2023-05-15T02:40:08.438Z,954.0977
2023-05-15T02:41:10.280Z,954.0977
2023-05-15T02:42:12.124Z,954.1015
2023-05-15T02:43:13.963Z,954.0939
2023-05-15T02:44:15.793Z,954.0770
2023-05-15T02:45:17.632Z,954.0670
2023-05-15T02:46:19.564Z,954.0569
2023-05-15T02:47:21.329Z,954.0508
2023-05-15T02:48:23.155Z,954.0438
2023-05-15T02:49:24.977Z,954.0492
2023-05-15T02:50:26.826Z,954.0415
2023-05-15T02:51:28.655Z,954.0377
2023-05-15T02:52:30.509Z,954.0239
2023-05-15T02:53:32.383Z,954.0192
2023-05-15T02:54:34.190Z,954.0108
2023-05-15T02:55:36.042Z,954.0123
2023-05-15T02:56:37.857Z,954.0046
2023-05-15T02:57:39.722Z,954.0008
2023-05-15T02:58:41.579Z,954.0015
2023-05-15T02:59:43.404Z,953.9969
2023-05-15T03:00:45.234Z,954.0046
2023-05-15T03:01:47.125Z,953.9962
2023-05-15T03:02:48.959Z,953.9900
2023-05-15T03:03:50.764Z,953.9869
2023-05-15T03:04:52.581Z,953.9800
2023-05-15T03:05:54.416Z,953.9592
2023-05-15T03:06:56.248Z,953.9639
2023-05-15T03:07:58.177Z,953.9753
2023-05-15T03:09:00.037Z,953.9715
2023-05-15T03:10:01.856Z,953.9846
2023-05-15T03:11:03.703Z,953.9854
2023-05-15T03:12:05.522Z,953.9731
2023-05-15T03:13:07.357Z,953.9800
2023-05-15T03:14:09.216Z,953.9892
2023-05-15T03:15:11.038Z,953.9938
2023-05-15T03:16:12.895Z,953.9946
2023-05-15T03:17:14.800Z,953.9954
2023-05-15T03:18:18.627Z,953.9892
2023-05-15T03:19:18.424Z,953.9900
2023-05-15T03:20:20.237Z,953.9877
2023-05-15T03:21:22.077Z,953.9900
2023-05-15T03:22:23.906Z,953.9808
2023-05-15T03:23:25.762Z,953.9823
2023-05-15T03:24:27.593Z,953.9646
2023-05-15T03:25:29.452Z,953.9569
2023-05-15T03:26:31.280Z,953.9592
2023-05-15T03:27:33.126Z,953.9539
2023-05-15T03:28:34.970Z,953.9547
2023-05-15T03:29:36.802Z,953.9531
2023-05-15T03:30:38.646Z,953.9531
2023-05-15T03:31:40.542Z,953.9477
2023-05-15T03:32:42.377Z,953.9415
2023-05-15T03:33:44.145Z,953.9477
2023-05-15T03:34:45.986Z,953.9554
2023-05-15T03:35:47.843Z,953.9585
2023-05-15T03:36:49.693Z,953.9700
2023-05-15T03:37:51.523Z,953.9877
2023-05-15T03:38:53.339Z,953.9915
2023-05-15T03:39:55.180Z,953.9969
2023-05-15T03:40:57.042Z,953.9915
2023-05-15T03:41:58.871Z,953.9930
2023-05-15T03:43:00.707Z,953.9885
2023-05-15T03:44:02.568Z,953.9885
2023-05-15T03:45:04.366Z,953.9854
2023-05-15T03:46:06.232Z,953.9869
2023-05-15T03:47:08.087Z,953.9838
2023-05-15T03:48:09.914Z,953.9684
2023-05-15T03:49:11.777Z,953.9684
2023-05-15T03:50:13.576Z,953.9708
2023-05-15T03:51:15.429Z,953.9692
2023-05-15T03:52:17.257Z,953.9708
2023-05-15T03:53:19.116Z,953.9738
2023-05-15T03:54:20.958Z,953.9738
2023-05-15T03:55:22.790Z,953.9746
2023-05-15T03:56:24.631Z,953.9785
2023-05-15T03:57:26.463Z,953.9877
2023-05-15T03:58:28.319Z,953.9915
2023-05-15T03:59:30.163Z,954.0000
2023-05-15T04:00:32.001Z,954.0139
2023-05-15T04:01:40.932Z,954.0100
2023-05-15T04:02:36.752Z,954.0139
2023-05-15T04:03:37.578Z,954.0269
2023-05-15T04:04:39.391Z,954.0308
2023-05-15T04:05:41.342Z,954.0408
2023-05-15T04:06:43.031Z,954.0700
2023-05-15T04:07:44.895Z,954.0808
2023-05-15T04:08:46.732Z,954.0969
2023-05-15T04:09:48.589Z,954.1092
2023-05-15T04:10:50.414Z,954.1277
2023-05-15T04:11:52.254Z,954.1323
2023-05-15T04:12:54.107Z,954.1392
2023-05-15T04:13:55.945Z,954.1400
2023-05-15T04:14:57.778Z,954.1370
2023-05-15T04:15:59.654Z,954.1392
2023-05-15T04:17:01.466Z,954.1500
2023-05-15T04:18:03.353Z,954.1469
2023-05-15T04:19:05.178Z,954.1546
2023-05-15T04:20:06.958Z,954.1623
2023-05-15T04:21:08.816Z,954.1638
2023-05-15T04:22:10.654Z,954.1708
2023-05-15T04:23:12.478Z,954.1730
2023-05-15T04:24:14.328Z,954.1631
2023-05-15T04:25:16.278Z,954.1508
2023-05-15T04:26:18.011Z,954.1531
2023-05-15T04:27:19.906Z,954.1584
2023-05-15T04:28:21.715Z,954.1677
2023-05-15T04:29:23.531Z,954.1746
2023-05-15T04:30:25.365Z,954.1862
2023-05-15T04:31:27.258Z,954.1862
2023-05-15T04:32:29.088Z,954.1900
2023-05-15T04:33:30.896Z,954.1870
2023-05-15T04:34:32.769Z,954.1931
2023-05-15T04:35:34.586Z,954.1962
2023-05-15T04:36:36.429Z,954.2054
2023-05-15T04:37:38.267Z,954.2177
2023-05-15T04:38:40.116Z,954.2131
2023-05-15T04:39:41.923Z,954.2077
2023-05-15T04:40:43.772Z,954.2054
2023-05-15T04:41:45.605Z,954.2100
2023-05-15T04:42:47.475Z,954.2146
2023-05-15T04:43:49.297Z,954.2253
2023-05-15T04:44:51.139Z,954.2238
2023-05-15T04:45:52.967Z,954.2246
2023-05-15T04:46:54.817Z,954.2123
2023-05-15T04:47:56.697Z,954.1985
2023-05-15T04:48:58.499Z,954.1777
2023-05-15T04:50:00.340Z,954.1500
2023-05-15T04:51:02.149Z,954.1392
2023-05-15T04:52:04.013Z,954.1323
2023-05-15T04:53:05.843Z,954.1454
2023-05-15T04:54:07.682Z,954.1485
2023-05-15T04:55:09.514Z,954.1485
2023-05-15T04:56:11.369Z,954.1462
2023-05-15T04:57:13.198Z,954.1492
2023-05-15T04:58:15.043Z,954.1447
2023-05-15T04:59:16.855Z,954.1516
2023-05-15T05:00:18.700Z,954.1485
2023-05-15T05:01:20.539Z,954.1485
2023-05-15T05:02:22.511Z,954.1492
2023-05-15T05:03:24.269Z,954.1692
2023-05-15T05:04:26.053Z,954.1754
2023-05-15T05:05:27.892Z,954.1885
2023-05-15T05:06:30.560Z,954.1931
2023-05-15T05:07:31.573Z,954.1692
2023-05-15T05:08:33.421Z,954.1738
2023-05-15T05:09:35.256Z,954.1730
2023-05-15T05:10:37.125Z,954.1800
2023-05-15T05:11:38.937Z,954.1877
2023-05-15T05:12:40.761Z,954.2008
2023-05-15T05:13:42.607Z,954.2039
2023-05-15T05:14:44.443Z,954.2069
2023-05-15T05:15:46.360Z,954.2085
2023-05-15T05:16:48.127Z,954.2146
2023-05-15T05:17:50.015Z,954.2092
2023-05-15T05:18:51.828Z,954.2169
2023-05-15T05:19:53.656Z,954.2562
2023-05-15T05:20:55.477Z,954.2723
2023-05-15T05:21:57.334Z,954.2839
2023-05-15T05:22:59.139Z,954.2877
2023-05-15T05:24:00.975Z,954.2969
2023-05-15T05:25:02.814Z,954.3030
2023-05-15T05:26:06.140Z,954.2954
2023-05-15T05:27:06.493Z,954.2538
2023-05-15T05:28:08.333Z,954.2485
2023-05-15T05:29:10.165Z,954.2469
2023-05-15T05:30:12.005Z,954.2546
2023-05-15T05:31:13.841Z,954.2708
2023-05-15T05:32:15.696Z,954.2854
2023-05-15T05:33:17.513Z,954.2846
2023-05-15T05:34:19.351Z,954.2792
2023-05-15T05:35:21.195Z,954.2854
2023-05-15T05:36:23.021Z,954.2869
2023-05-15T05:37:24.884Z,954.2877
2023-05-15T05:38:26.719Z,954.2854
2023-05-15T05:39:28.552Z,954.2869
2023-05-15T05:40:30.360Z,954.2900
2023-05-15T05:41:32.207Z,954.2816
2023-05-15T05:42:34.038Z,954.2923
2023-05-15T05:43:35.882Z,954.3062
2023-05-15T05:44:37.717Z,954.3177
2023-05-15T05:45:39.563Z,954.3239
2023-05-15T05:46:41.438Z,954.3285
2023-05-15T05:47:43.262Z,954.3270
2023-05-15T05:48:45.090Z,954.3246
2023-05-15T05:49:46.899Z,954.3239
2023-05-15T05:50:48.742Z,954.3262
2023-05-15T05:51:50.585Z,954.3347
2023-05-15T05:52:52.421Z,954.3392
2023-05-15T05:53:54.244Z,954.3492
2023-05-15T05:54:56.095Z,954.3585
2023-05-15T05:55:57.971Z,954.3661
2023-05-15T05:56:59.780Z,954.3762
2023-05-15T05:58:03.345Z,954.3931
2023-05-15T05:59:03.426Z,954.4000
2023-05-15T06:00:05.257Z,954.4077
2023-05-15T06:01:07.126Z,954.4123
2023-05-15T06:02:09.018Z,954.4269
2023-05-15T06:03:10.887Z,954.4323
2023-05-15T06:04:12.635Z,954.4415
2023-05-15T06:05:14.466Z,954.4562
2023-05-15T06:06:16.301Z,954.4777
2023-05-15T06:07:18.123Z,954.4946
2023-05-15T06:08:19.967Z,954.5092
2023-05-15T06:09:21.853Z,954.5192
2023-05-15T06:10:23.881Z,954.5300
2023-05-15T06:11:25.766Z,954.5423
2023-05-15T06:12:27.325Z,954.5600
2023-05-15T06:13:29.185Z,954.5746
2023-05-15T06:14:30.984Z,954.5839
2023-05-15T06:15:32.832Z,954.5839
2023-05-15T06:16:34.720Z,954.5815
2023-05-15T06:17:36.566Z,954.5877
2023-05-15T06:18:38.429Z,954.5923
2023-05-15T06:19:40.203Z,954.5969
2023-05-15T06:20:42.040Z,954.5992
2023-05-15T06:21:43.851Z,954.5961
2023-05-15T06:22:45.698Z,954.6015
2023-05-15T06:23:47.572Z,954.6092
2023-05-15T06:24:49.409Z,954.6161
2023-05-15T06:25:51.214Z,954.6169
2023-05-15T06:26:53.061Z,954.6270
2023-05-15T06:27:54.896Z,954.6385
2023-05-15T06:28:56.764Z,954.6546
2023-05-15T06:29:58.637Z,954.6584
2023-05-15T06:31:00.438Z,954.6161
2023-05-15T06:32:02.289Z,954.6192
2023-05-15T06:33:04.152Z,954.6108
2023-05-15T06:34:05.933Z,954.6077
2023-05-15T06:35:07.795Z,954.6100
2023-05-15T06:36:09.601Z,954.6069
2023-05-15T06:37:11.477Z,954.6038
2023-05-15T06:38:13.296Z,954.6038
2023-05-15T06:39:15.124Z,954.6154
2023-05-15T06:40:16.981Z,954.6285
2023-05-15T06:41:18.817Z,954.6407
2023-05-15T06:42:20.635Z,954.6554
2023-05-15T06:43:22.479Z,954.6653
2023-05-15T06:44:25.619Z,954.6685
2023-05-15T06:45:26.479Z,954.6830
2023-05-15T06:46:28.023Z,954.6977
2023-05-15T06:47:29.871Z,954.6954
2023-05-15T06:48:31.703Z,954.6970
2023-05-15T06:49:33.512Z,954.6977
2023-05-15T06:50:35.345Z,954.6854
2023-05-15T06:51:37.193Z,954.6769
2023-05-15T06:52:39.011Z,954.6785
2023-05-15T06:53:40.851Z,954.6646
2023-05-15T06:54:42.708Z,954.6569
2023-05-15T06:55:44.529Z,954.6584
2023-05-15T06:56:46.375Z,954.6569
2023-05-15T06:57:48.211Z,954.6546
2023-05-15T06:58:50.065Z,954.6516
2023-05-15T06:59:51.965Z,954.6561
2023-05-15T07:00:56.091Z,954.6723
2023-05-15T07:01:55.601Z,954.6769
2023-05-15T07:02:57.418Z,954.6870
2023-05-15T07:03:59.251Z,954.6808
2023-05-15T07:05:01.120Z,954.6846
2023-05-15T07:06:02.931Z,954.6785
2023-05-15T07:07:04.742Z,954.6631
2023-05-15T07:08:06.614Z,954.6508
2023-05-15T07:09:08.447Z,954.6415
2023-05-15T07:10:10.283Z,954.6285
2023-05-15T07:11:12.285Z,954.6331
2023-05-15T07:12:14.062Z,954.6285
2023-05-15T07:13:15.909Z,954.6277
2023-05-15T07:14:17.715Z,954.6323
2023-05-15T07:15:19.540Z,954.6661
2023-05-15T07:16:21.416Z,954.6600
2023-05-15T07:17:23.353Z,954.6592
2023-05-15T07:18:25.105Z,954.6700
2023-05-15T07:19:26.986Z,954.6677
2023-05-15T07:20:31.026Z,954.6715
2023-05-15T07:21:30.568Z,954.6800
2023-05-15T07:22:34.380Z,954.6823
2023-05-15T07:23:34.253Z,954.6923
2023-05-15T07:24:37.379Z,954.7115
2023-05-15T07:25:37.917Z,954.7246
2023-05-15T07:26:50.234Z,954.7408
2023-05-15T07:27:43.959Z,954.7554
2023-05-15T07:28:44.542Z,954.7747
2023-05-15T07:29:46.108Z,954.8000
2023-05-15T07:30:47.660Z,954.8254
2023-05-15T07:31:49.256Z,954.8400
2023-05-15T07:32:50.818Z,954.8561
2023-05-15T07:33:52.655Z,954.8700
2023-05-15T07:34:54.535Z,954.8738
2023-05-15T07:35:56.319Z,954.8792
2023-05-15T07:36:58.160Z,954.8931
2023-05-15T07:38:00.069Z,954.8977
2023-05-15T07:39:01.835Z,954.9069
2023-05-15T07:40:03.712Z,954.9161
2023-05-15T07:41:05.509Z,954.9185
2023-05-15T07:42:07.376Z,954.9185
2023-05-15T07:43:09.187Z,954.9254
2023-05-15T07:44:11.035Z,954.9285
2023-05-15T07:45:12.930Z,954.9330
2023-05-15T07:46:14.807Z,954.9338
2023-05-15T07:47:16.573Z,954.9415
2023-05-15T07:48:18.405Z,954.9431
2023-05-15T07:49:20.256Z,954.9470
2023-05-15T07:50:22.100Z,954.9392
2023-05-15T07:51:23.922Z,954.9462
2023-05-15T07:52:25.786Z,954.9423
2023-05-15T07:53:27.620Z,954.9515
2023-05-15T07:54:29.465Z,954.9446
2023-05-15T07:55:31.283Z,954.9462
2023-05-15T07:56:33.136Z,954.9362
2023-05-15T07:57:34.952Z,954.9315
2023-05-15T07:58:36.804Z,954.9230
2023-05-15T07:59:38.672Z,954.9185
2023-05-15T08:00:40.492Z,954.9108
2023-05-15T08:01:42.361Z,954.9016
2023-05-15T08:02:44.251Z,954.8738
2023-05-15T08:03:46.109Z,954.8646
2023-05-15T08:04:47.858Z,954.8431
2023-05-15T08:05:49.731Z,954.8331
2023-05-15T08:06:51.552Z,954.8046
2023-05-15T08:07:53.382Z,954.7846
2023-05-15T08:08:55.213Z,954.7677
2023-05-15T08:09:57.055Z,954.7654
2023-05-15T08:10:58.923Z,954.7708
2023-05-15T08:12:00.749Z,954.7808
2023-05-15T08:13:02.567Z,954.7931
2023-05-15T08:14:04.458Z,954.7992
2023-05-15T08:15:06.274Z,954.8015
2023-05-15T08:16:08.141Z,954.7885
2023-05-15T08:17:09.927Z,954.7608
2023-05-15T08:18:12.224Z,954.7285
2023-05-15T08:19:13.645Z,954.7223
2023-05-15T08:20:15.453Z,954.7308
2023-05-15T08:21:17.298Z,954.7485
2023-05-15T08:22:19.154Z,954.7677
2023-05-15T08:23:20.979Z,954.7877
2023-05-15T08:24:22.805Z,954.7953
2023-05-15T08:25:24.868Z,954.8023
2023-05-15T08:26:26.514Z,954.8123
2023-05-15T08:27:28.353Z,954.8208
2023-05-15T08:28:30.197Z,954.8323
2023-05-15T08:29:32.035Z,954.8354
2023-05-15T08:30:33.856Z,954.8292
2023-05-15T08:31:35.769Z,954.8323
2023-05-15T08:32:37.550Z,954.8223
2023-05-15T08:33:39.379Z,954.8108
2023-05-15T08:34:41.222Z,954.8115
2023-05-15T08:35:43.185Z,954.7961
2023-05-15T08:36:44.912Z,954.7846
2023-05-15T08:37:46.745Z,954.7839
2023-05-15T08:38:48.559Z,954.7708
2023-05-15T08:39:50.429Z,954.7623
2023-05-15T08:40:52.241Z,954.7469
2023-05-15T08:41:54.093Z,954.7323
2023-05-15T08:42:55.940Z,954.7200
2023-05-15T08:43:57.764Z,954.7161
2023-05-15T08:44:59.615Z,954.7177
2023-05-15T08:46:01.477Z,954.7169
2023-05-15T08:47:03.327Z,954.7177
2023-05-15T08:48:05.190Z,954.7092
2023-05-15T08:49:07.066Z,954.7000
2023-05-15T08:50:08.818Z,954.6938
2023-05-15T08:51:10.663Z,954.6777
2023-05-15T08:52:12.513Z,954.6600
2023-05-15T08:53:14.335Z,954.6339
2023-05-15T08:54:16.210Z,954.6538
2023-05-15T08:55:18.041Z,954.6508
2023-05-15T08:56:19.880Z,954.6431
2023-05-15T08:57:21.711Z,954.6331
2023-05-15T08:58:23.560Z,954.6354
2023-05-15T08:59:25.397Z,954.6315
2023-05-15T09:00:27.224Z,954.6223
2023-05-15T09:01:29.117Z,954.6177
2023-05-15T09:02:30.958Z,954.6130
2023-05-15T09:03:32.811Z,954.6161
2023-05-15T09:04:34.635Z,954.6115
2023-05-15T09:05:38.120Z,954.6046
2023-05-15T09:06:38.301Z,954.5939
2023-05-15T09:07:40.141Z,954.5900
2023-05-15T09:08:41.978Z,954.5847
2023-05-15T09:09:43.815Z,954.5739
2023-05-15T09:10:45.652Z,954.5638
2023-05-15T09:11:47.519Z,954.5546
2023-05-15T09:12:49.350Z,954.5477
2023-05-15T09:13:51.167Z,954.5530
2023-05-15T09:14:53.006Z,954.5608
2023-05-15T09:15:54.859Z,954.5530
2023-05-15T09:16:56.757Z,954.5508
2023-05-15T09:17:58.570Z,954.5585
2023-05-15T09:19:00.540Z,954.5554
2023-05-15T09:20:02.233Z,954.5477
2023-05-15T09:21:04.086Z,954.5500
2023-05-15T09:22:05.927Z,954.5423
2023-05-15T09:23:07.740Z,954.5508
2023-05-15T09:24:09.610Z,954.5670
2023-05-15T09:25:11.446Z,954.5692
2023-05-15T09:26:13.304Z,954.5823
2023-05-15T09:27:15.142Z,954.5831
2023-05-15T09:28:16.965Z,954.5984
2023-05-15T09:29:19.128Z,954.5946
2023-05-15T09:30:20.662Z,954.5992
2023-05-15T09:31:22.523Z,954.5916
2023-05-15T09:32:24.417Z,954.5808
2023-05-15T09:33:26.196Z,954.5715
2023-05-15T09:34:28.017Z,954.5685
2023-05-15T09:35:30.106Z,954.5600
2023-05-15T09:36:32.243Z,954.5577
2023-05-15T09:37:34.276Z,954.5500
2023-05-15T09:38:35.384Z,954.5423
2023-05-15T09:39:37.240Z,954.5438
2023-05-15T09:40:39.115Z,954.5569
2023-05-15T09:41:40.928Z,954.5515
2023-05-15T09:42:42.780Z,954.5600
2023-05-15T09:43:44.597Z,954.5692
2023-05-15T09:44:46.439Z,954.5692
2023-05-15T09:45:48.399Z,954.5638
2023-05-15T09:46:50.240Z,954.5615
2023-05-15T09:47:52.073Z,954.5715
2023-05-15T09:48:53.811Z,954.5808
2023-05-15T09:49:55.666Z,954.5877
2023-05-15T09:50:57.511Z,954.5961
2023-05-15T09:51:59.346Z,954.6008
2023-05-15T09:53:01.226Z,954.5961
2023-05-15T09:54:03.066Z,954.5961
2023-05-15T09:55:04.887Z,954.5862
2023-05-15T09:56:06.718Z,954.5800
2023-05-15T09:57:08.569Z,954.5638
2023-05-15T09:58:10.400Z,954.5492
2023-05-15T09:59:12.242Z,954.5223
2023-05-15T10:00:14.106Z,954.5031
2023-05-15T10:01:15.959Z,954.5015
2023-05-15T10:02:17.788Z,954.4985
2023-05-15T10:03:19.723Z,954.5100
2023-05-15T10:04:21.470Z,954.5131
2023-05-15T10:05:35.331Z,954.5077
2023-05-15T10:06:27.270Z,954.5000
2023-05-15T10:07:27.828Z,954.4946
2023-05-15T10:08:29.436Z,954.4815
2023-05-15T10:09:30.972Z,954.4800
2023-05-15T10:10:32.533Z,954.4577
2023-05-15T10:11:34.347Z,954.4385
2023-05-15T10:12:36.202Z,954.4208
2023-05-15T10:13:38.020Z,954.4153
2023-05-15T10:14:39.875Z,954.4100
2023-05-15T10:15:41.730Z,954.4046
2023-05-15T10:16:43.715Z,954.3823
2023-05-15T10:17:45.410Z,954.3700
2023-05-15T10:18:47.256Z,954.3546
2023-05-15T10:19:57.702Z,954.3362
2023-05-15T10:20:53.878Z,954.3177
2023-05-15T10:21:54.487Z,954.3092
2023-05-15T10:22:56.039Z,954.2885
2023-05-15T10:23:57.586Z,954.2808
2023-05-15T10:24:59.138Z,954.2754
2023-05-15T10:26:00.692Z,954.2454
2023-05-15T10:27:02.253Z,954.2531
2023-05-15T10:28:03.833Z,954.2808
2023-05-15T10:29:05.623Z,954.2777
2023-05-15T10:30:07.490Z,954.2654
2023-05-15T10:31:09.306Z,954.2554
2023-05-15T10:32:11.128Z,954.2377
2023-05-15T10:33:13.095Z,954.2223
2023-05-15T10:34:14.846Z,954.2115
2023-05-15T10:35:16.725Z,954.1938
2023-05-15T10:36:18.529Z,954.1885
2023-05-15T10:37:20.377Z,954.1769
2023-05-15T10:38:22.221Z,954.1677
2023-05-15T10:39:24.050Z,954.1569
2023-05-15T10:40:26.122Z,954.1569
2023-05-15T10:41:27.733Z,954.1484
2023-05-15T10:42:29.594Z,954.1385
2023-05-15T10:43:31.423Z,954.1308
2023-05-15T10:44:33.256Z,954.1169
2023-05-15T10:45:35.103Z,954.1008
2023-05-15T10:46:36.981Z,954.0877
2023-05-15T10:47:38.819Z,954.0731
2023-05-15T10:48:40.617Z,954.0708
2023-05-15T10:49:42.471Z,954.0538
2023-05-15T10:50:44.289Z,954.0400
2023-05-15T10:51:46.137Z,954.0292
2023-05-15T10:52:47.966Z,954.0192
2023-05-15T10:53:49.830Z,954.0200
2023-05-15T10:54:51.654Z,954.0123
2023-05-15T10:55:53.568Z,954.0077
2023-05-15T10:56:55.358Z,953.9908
2023-05-15T10:57:57.236Z,953.9869
2023-05-15T10:58:59.034Z,953.9846
2023-05-15T11:00:00.870Z,953.9946
2023-05-15T11:01:02.746Z,953.9877
2023-05-15T11:02:04.536Z,953.9930
2023-05-15T11:03:06.395Z,953.9769
2023-05-15T11:04:08.264Z,953.9684
2023-05-15T11:05:10.052Z,953.9631
2023-05-15T11:06:11.950Z,953.9677
2023-05-15T11:07:13.738Z,953.9654
2023-05-15T11:08:15.618Z,953.9677
2023-05-15T11:09:17.422Z,953.9639
2023-05-15T11:10:19.278Z,953.9569
2023-05-15T11:11:21.113Z,953.9508
2023-05-15T11:12:23.000Z,953.9547
2023-05-15T11:13:24.782Z,953.9523
2023-05-15T11:14:26.682Z,953.9485
2023-05-15T11:15:28.534Z,953.9508
2023-05-15T11:16:30.402Z,953.9415
2023-05-15T11:17:32.270Z,953.9400
2023-05-15T11:18:34.091Z,953.9423
2023-05-15T11:19:35.918Z,953.9300
2023-05-15T11:20:37.725Z,953.9261
2023-05-15T11:21:39.599Z,953.9131
2023-05-15T11:22:41.436Z,953.8954
2023-05-15T11:23:43.296Z,953.8754
2023-05-15T11:24:45.122Z,953.8553
2023-05-15T11:25:46.940Z,953.8339
2023-05-15T11:26:48.800Z,953.8277
2023-05-15T11:27:50.625Z,953.8192
2023-05-15T11:28:52.526Z,953.7977
2023-05-15T11:29:54.369Z,953.7931
2023-05-15T11:30:56.174Z,953.7923
2023-05-15T11:31:57.975Z,953.7953
2023-05-15T11:32:59.881Z,953.7923
2023-05-15T11:34:01.669Z,953.7823
2023-05-15T11:35:03.513Z,953.7654
2023-05-15T11:36:05.359Z,953.7485
2023-05-15T11:37:07.192Z,953.7338
2023-05-15T11:38:09.059Z,953.7415
2023-05-15T11:39:10.887Z,953.7323
2023-05-15T11:40:12.756Z,953.7246
2023-05-15T11:41:14.556Z,953.7408
2023-05-15T11:42:16.414Z,953.7430
2023-05-15T11:43:18.245Z,953.7385
2023-05-15T11:44:20.124Z,953.7246
2023-05-15T11:45:21.922Z,953.7123
2023-05-15T11:46:23.808Z,953.6777
2023-05-15T11:47:25.604Z,953.7069
2023-05-15T11:48:27.454Z,953.7000
2023-05-15T11:49:29.273Z,953.6915
2023-05-15T11:50:31.129Z,953.6862
2023-05-15T11:51:33.037Z,953.6708
2023-05-15T11:52:34.828Z,953.6531
2023-05-15T11:53:36.655Z,953.6462
2023-05-15T11:54:38.492Z,953.6392
2023-05-15T11:55:40.357Z,953.6123
2023-05-15T11:56:42.199Z,953.5931
2023-05-15T11:57:44.055Z,953.5739
2023-05-15T11:58:45.882Z,953.5508
2023-05-15T11:59:47.718Z,953.5400
2023-05-15T12:00:49.586Z,953.5354
2023-05-15T12:01:51.419Z,953.5508
2023-05-15T12:02:53.379Z,953.5569
2023-05-15T12:03:55.456Z,953.5700
2023-05-15T12:04:57.051Z,953.5670
2023-05-15T12:06:00.170Z,953.5662